sensor_id;sensor_type;location;lat;lon;timestamp;noise_LAeq;noise_LA_min;noise_LA_max;noise_LA01;noise_LA95
72415;Laerm;60995;52.154;4.498;2023-03-31T00:02:06;42.73;37.45;52.12;;
72415;Laerm;60995;52.154;4.498;2023-03-31T00:04:28;45.05;39.31;59.66;;
72415;Laerm;60995;52.154;4.498;2023-03-31T00:06:47;47.29;40.09;59.48;;
72415;Laerm;60995;52.154;4.498;2023-03-31T00:09:09;45.61;39.61;64.54;;
72415;Laerm;60995;52.154;4.498;2023-03-31T00:11:26;45.03;39.19;59.03;;
72415;Laerm;60995;52.154;4.498;2023-03-31T00:13:43;43.70;38.91;49.89;;
72415;Laerm;60995;52.154;4.498;2023-03-31T00:16:04;47.12;40.58;56.50;;
72415;Laerm;60995;52.154;4.498;2023-03-31T00:18:20;46.26;39.88;58.18;;
72415;Laerm;60995;52.154;4.498;2023-03-31T00:20:37;44.28;39.10;50.71;;
72415;Laerm;60995;52.154;4.498;2023-03-31T00:22:54;45.19;39.13;55.11;;
72415;Laerm;60995;52.154;4.498;2023-03-31T00:25:14;43.82;39.26;51.73;;
72415;Laerm;60995;52.154;4.498;2023-03-31T00:27:31;44.90;38.85;58.52;;
72415;Laerm;60995;52.154;4.498;2023-03-31T00:29:47;51.80;40.44;68.74;;
72415;Laerm;60995;52.154;4.498;2023-03-31T00:32:06;65.69;49.95;76.90;;
72415;Laerm;60995;52.154;4.498;2023-03-31T00:34:23;51.79;44.91;63.84;;
72415;Laerm;60995;52.154;4.498;2023-03-31T00:36:39;48.66;41.94;62.70;;
72415;Laerm;60995;52.154;4.498;2023-03-31T00:39:04;47.97;40.94;61.08;;
72415;Laerm;60995;52.154;4.498;2023-03-31T00:41:28;47.66;41.89;62.02;;
72415;Laerm;60995;52.154;4.498;2023-03-31T00:44:17;46.06;40.27;60.53;;
72415;Laerm;60995;52.154;4.498;2023-03-31T00:46:45;47.19;40.44;61.38;;
72415;Laerm;60995;52.154;4.498;2023-03-31T00:49:04;44.72;39.36;58.76;;
72415;Laerm;60995;52.154;4.498;2023-03-31T00:51:31;44.68;39.86;60.20;;
72415;Laerm;60995;52.154;4.498;2023-03-31T00:53:56;44.42;39.25;59.25;;
72415;Laerm;60995;52.154;4.498;2023-03-31T00:56:16;46.84;39.86;60.85;;
72415;Laerm;60995;52.154;4.498;2023-03-31T00:58:32;44.49;38.86;61.92;;
72415;Laerm;60995;52.154;4.498;2023-03-31T01:00:50;45.58;39.63;59.45;;
72415;Laerm;60995;52.154;4.498;2023-03-31T01:03:08;44.03;39.56;58.97;;
72415;Laerm;60995;52.154;4.498;2023-03-31T01:05:31;47.07;40.77;70.27;;
72415;Laerm;60995;52.154;4.498;2023-03-31T01:07:50;48.02;40.10;78.13;;
72415;Laerm;60995;52.154;4.498;2023-03-31T01:10:09;44.68;39.33;61.73;;
72415;Laerm;60995;52.154;4.498;2023-03-31T01:12:26;44.86;38.67;56.77;;
72415;Laerm;60995;52.154;4.498;2023-03-31T01:14:43;44.36;38.32;59.02;;
72415;Laerm;60995;52.154;4.498;2023-03-31T01:16:59;43.86;38.99;54.35;;
72415;Laerm;60995;52.154;4.498;2023-03-31T01:19:38;43.80;38.76;61.94;;
72415;Laerm;60995;52.154;4.498;2023-03-31T01:25:30;43.96;38.93;59.80;;
72415;Laerm;60995;52.154;4.498;2023-03-31T01:48:03;47.23;41.01;60.76;;
72415;Laerm;60995;52.154;4.498;2023-03-31T01:50:46;47.56;42.53;61.43;;
72415;Laerm;60995;52.154;4.498;2023-03-31T01:53:23;47.99;41.74;66.08;;
72415;Laerm;60995;52.154;4.498;2023-03-31T01:56:09;46.94;41.50;60.59;;
72415;Laerm;60995;52.154;4.498;2023-03-31T01:59:00;47.31;42.01;61.16;;
72415;Laerm;60995;52.154;4.498;2023-03-31T02:01:46;47.91;42.38;60.32;;
72415;Laerm;60995;52.154;4.498;2023-03-31T02:04:16;48.56;43.49;60.85;;
72415;Laerm;60995;52.154;4.498;2023-03-31T02:06:40;47.68;42.36;65.78;;
72415;Laerm;60995;52.154;4.498;2023-03-31T02:09:05;49.11;41.99;61.21;;
72415;Laerm;60995;52.154;4.498;2023-03-31T02:11:24;52.54;43.41;67.74;;
72415;Laerm;60995;52.154;4.498;2023-03-31T02:13:45;49.79;42.56;66.58;;
72415;Laerm;60995;52.154;4.498;2023-03-31T02:16:08;48.13;43.02;63.25;;
72415;Laerm;60995;52.154;4.498;2023-03-31T02:18:30;49.21;42.57;62.17;;
72415;Laerm;60995;52.154;4.498;2023-03-31T02:20:50;50.96;45.05;64.78;;
72415;Laerm;60995;52.154;4.498;2023-03-31T02:23:12;49.63;42.91;65.25;;
72415;Laerm;60995;52.154;4.498;2023-03-31T02:25:38;50.07;44.36;62.30;;
72415;Laerm;60995;52.154;4.498;2023-03-31T02:28:04;49.36;43.84;62.26;;
72415;Laerm;60995;52.154;4.498;2023-03-31T02:30:41;48.10;42.17;64.65;;
72415;Laerm;60995;52.154;4.498;2023-03-31T02:33:04;47.51;42.21;64.02;;
72415;Laerm;60995;52.154;4.498;2023-03-31T02:35:20;47.63;41.79;68.68;;
72415;Laerm;60995;52.154;4.498;2023-03-31T02:37:39;47.43;42.88;58.17;;
72415;Laerm;60995;52.154;4.498;2023-03-31T02:40:04;49.78;43.28;63.05;;
72415;Laerm;60995;52.154;4.498;2023-03-31T02:42:21;48.40;43.40;62.57;;
72415;Laerm;60995;52.154;4.498;2023-03-31T02:44:38;48.15;43.17;61.22;;
72415;Laerm;60995;52.154;4.498;2023-03-31T02:46:55;51.30;44.34;67.52;;
72415;Laerm;60995;52.154;4.498;2023-03-31T02:49:12;50.24;44.39;61.75;;
72415;Laerm;60995;52.154;4.498;2023-03-31T03:00:29;47.73;41.93;63.71;;
72415;Laerm;60995;52.154;4.498;2023-03-31T03:03:41;47.83;42.85;58.97;;
72415;Laerm;60995;52.154;4.498;2023-03-31T03:06:19;48.77;43.72;58.98;;
72415;Laerm;60995;52.154;4.498;2023-03-31T03:14:11;47.83;42.87;60.84;;
72415;Laerm;60995;52.154;4.498;2023-03-31T03:16:39;47.77;42.71;58.04;;
72415;Laerm;60995;52.154;4.498;2023-03-31T03:19:00;48.47;42.87;57.98;;
72415;Laerm;60995;52.154;4.498;2023-03-31T03:21:17;47.63;43.61;60.93;;
72415;Laerm;60995;52.154;4.498;2023-03-31T03:23:33;49.79;43.96;63.37;;
72415;Laerm;60995;52.154;4.498;2023-03-31T03:25:50;50.86;45.61;65.58;;
72415;Laerm;60995;52.154;4.498;2023-03-31T03:28:06;49.58;44.51;60.50;;
72415;Laerm;60995;52.154;4.498;2023-03-31T03:30:22;50.35;45.32;62.41;;
72415;Laerm;60995;52.154;4.498;2023-03-31T03:32:39;50.90;45.55;63.34;;
72415;Laerm;60995;52.154;4.498;2023-03-31T03:34:56;50.58;45.15;62.12;;
72415;Laerm;60995;52.154;4.498;2023-03-31T03:37:12;49.97;44.41;60.25;;
72415;Laerm;60995;52.154;4.498;2023-03-31T03:39:28;48.98;43.53;60.67;;
72415;Laerm;60995;52.154;4.498;2023-03-31T03:41:45;50.66;45.20;61.69;;
72415;Laerm;60995;52.154;4.498;2023-03-31T03:44:02;49.78;45.01;60.22;;
72415;Laerm;60995;52.154;4.498;2023-03-31T03:46:18;49.94;45.19;60.34;;
72415;Laerm;60995;52.154;4.498;2023-03-31T03:48:34;50.73;44.35;60.63;;
72415;Laerm;60995;52.154;4.498;2023-03-31T03:50:51;50.93;45.60;66.84;;
72415;Laerm;60995;52.154;4.498;2023-03-31T03:53:09;49.75;44.46;59.26;;
72415;Laerm;60995;52.154;4.498;2023-03-31T03:55:25;51.04;46.74;59.02;;
72415;Laerm;60995;52.154;4.498;2023-03-31T03:57:41;51.23;46.17;59.43;;
72415;Laerm;60995;52.154;4.498;2023-03-31T03:59:57;53.22;48.36;61.63;;
72415;Laerm;60995;52.154;4.498;2023-03-31T04:02:14;52.62;48.21;59.28;;
72415;Laerm;60995;52.154;4.498;2023-03-31T04:04:30;52.72;47.49;60.01;;
72415;Laerm;60995;52.154;4.498;2023-03-31T04:06:46;52.83;48.34;58.79;;
72415;Laerm;60995;52.154;4.498;2023-03-31T04:09:03;53.14;49.12;59.02;;
72415;Laerm;60995;52.154;4.498;2023-03-31T04:11:20;53.32;48.05;60.59;;
72415;Laerm;60995;52.154;4.498;2023-03-31T04:13:37;53.28;47.86;60.14;;
72415;Laerm;60995;52.154;4.498;2023-03-31T04:15:53;53.38;48.51;62.73;;
72415;Laerm;60995;52.154;4.498;2023-03-31T04:18:10;53.50;48.32;59.52;;
72415;Laerm;60995;52.154;4.498;2023-03-31T04:20:33;52.96;48.80;61.92;;
72415;Laerm;60995;52.154;4.498;2023-03-31T04:22:52;53.45;47.70;61.18;;
72415;Laerm;60995;52.154;4.498;2023-03-31T04:25:12;53.74;48.31;62.94;;
72415;Laerm;60995;52.154;4.498;2023-03-31T04:27:31;54.46;48.19;68.13;;
72415;Laerm;60995;52.154;4.498;2023-03-31T04:29:48;53.33;47.75;60.56;;
72415;Laerm;60995;52.154;4.498;2023-03-31T04:32:09;52.55;47.31;64.63;;
72415;Laerm;60995;52.154;4.498;2023-03-31T04:34:29;53.26;48.59;62.71;;
72415;Laerm;60995;52.154;4.498;2023-03-31T04:36:49;53.69;48.25;62.22;;
72415;Laerm;60995;52.154;4.498;2023-03-31T04:39:06;53.65;49.10;62.60;;
72415;Laerm;60995;52.154;4.498;2023-03-31T04:41:26;53.48;48.12;59.35;;
72415;Laerm;60995;52.154;4.498;2023-03-31T04:43:43;52.92;47.69;63.40;;
72415;Laerm;60995;52.154;4.498;2023-03-31T04:45:59;53.35;48.31;67.30;;
72415;Laerm;60995;52.154;4.498;2023-03-31T04:48:16;53.88;48.98;59.55;;
72415;Laerm;60995;52.154;4.498;2023-03-31T04:50:32;52.75;47.30;58.98;;
72415;Laerm;60995;52.154;4.498;2023-03-31T04:52:48;53.15;47.68;59.96;;
72415;Laerm;60995;52.154;4.498;2023-03-31T04:55:05;52.20;47.69;59.26;;
72415;Laerm;60995;52.154;4.498;2023-03-31T04:57:22;52.23;47.43;60.16;;
72415;Laerm;60995;52.154;4.498;2023-03-31T04:59:38;59.00;47.63;83.48;;
72415;Laerm;60995;52.154;4.498;2023-03-31T05:01:54;52.74;47.44;74.88;;
72415;Laerm;60995;52.154;4.498;2023-03-31T05:04:11;53.25;47.52;59.66;;
72415;Laerm;60995;52.154;4.498;2023-03-31T05:06:27;53.44;47.91;62.32;;
72415;Laerm;60995;52.154;4.498;2023-03-31T05:08:43;53.19;48.18;60.76;;
72415;Laerm;60995;52.154;4.498;2023-03-31T05:11:02;52.96;47.83;60.72;;
72415;Laerm;60995;52.154;4.498;2023-03-31T05:13:19;53.31;48.32;59.57;;
72415;Laerm;60995;52.154;4.498;2023-03-31T05:15:38;53.54;48.23;62.20;;
72415;Laerm;60995;52.154;4.498;2023-03-31T05:17:57;55.20;48.32;71.25;;
72415;Laerm;60995;52.154;4.498;2023-03-31T05:20:13;53.95;48.13;62.13;;
72415;Laerm;60995;52.154;4.498;2023-03-31T05:22:37;52.84;47.48;59.82;;
72415;Laerm;60995;52.154;4.498;2023-03-31T05:24:53;56.11;47.68;77.92;;
72415;Laerm;60995;52.154;4.498;2023-03-31T05:27:09;53.38;47.91;61.15;;
72415;Laerm;60995;52.154;4.498;2023-03-31T05:29:26;54.14;48.38;61.24;;
72415;Laerm;60995;52.154;4.498;2023-03-31T05:31:42;54.00;48.62;60.12;;
72415;Laerm;60995;52.154;4.498;2023-03-31T05:33:58;54.59;48.77;67.90;;
72415;Laerm;60995;52.154;4.498;2023-03-31T05:36:16;53.06;47.81;64.45;;
72415;Laerm;60995;52.154;4.498;2023-03-31T05:38:33;54.53;47.51;65.08;;
72415;Laerm;60995;52.154;4.498;2023-03-31T05:40:49;54.03;48.99;63.53;;
72415;Laerm;60995;52.154;4.498;2023-03-31T05:43:05;54.70;48.30;65.96;;
72415;Laerm;60995;52.154;4.498;2023-03-31T05:45:22;53.24;47.41;59.62;;
72415;Laerm;60995;52.154;4.498;2023-03-31T05:47:38;53.67;48.53;60.07;;
72415;Laerm;60995;52.154;4.498;2023-03-31T05:49:55;54.01;48.60;62.15;;
72415;Laerm;60995;52.154;4.498;2023-03-31T05:52:11;54.94;50.30;60.73;;
72415;Laerm;60995;52.154;4.498;2023-03-31T05:54:28;54.36;49.39;62.30;;
72415;Laerm;60995;52.154;4.498;2023-03-31T05:56:44;54.57;49.60;63.17;;
72415;Laerm;60995;52.154;4.498;2023-03-31T05:59:00;53.89;48.47;62.26;;
72415;Laerm;60995;52.154;4.498;2023-03-31T06:01:17;54.57;49.58;62.90;;
72415;Laerm;60995;52.154;4.498;2023-03-31T06:03:40;53.48;48.65;64.66;;
72415;Laerm;60995;52.154;4.498;2023-03-31T06:05:56;55.81;49.18;68.79;;
72415;Laerm;60995;52.154;4.498;2023-03-31T06:08:15;54.30;48.55;65.96;;
72415;Laerm;60995;52.154;4.498;2023-03-31T06:10:33;55.38;49.95;68.10;;
72415;Laerm;60995;52.154;4.498;2023-03-31T06:12:50;54.27;49.74;64.86;;
72415;Laerm;60995;52.154;4.498;2023-03-31T06:15:07;54.37;48.98;59.38;;
72415;Laerm;60995;52.154;4.498;2023-03-31T06:17:24;55.07;50.08;60.10;;
72415;Laerm;60995;52.154;4.498;2023-03-31T06:19:40;55.72;50.15;67.09;;
72415;Laerm;60995;52.154;4.498;2023-03-31T06:21:56;55.69;49.24;68.57;;
72415;Laerm;60995;52.154;4.498;2023-03-31T06:24:12;53.87;48.51;61.08;;
72415;Laerm;60995;52.154;4.498;2023-03-31T06:26:29;54.32;49.40;67.28;;
72415;Laerm;60995;52.154;4.498;2023-03-31T06:28:46;56.70;49.94;69.99;;
72415;Laerm;60995;52.154;4.498;2023-03-31T06:31:08;55.05;48.25;61.93;;
72415;Laerm;60995;52.154;4.498;2023-03-31T06:33:27;55.84;49.57;64.43;;
72415;Laerm;60995;52.154;4.498;2023-03-31T06:35:43;57.69;51.78;70.60;;
72415;Laerm;60995;52.154;4.498;2023-03-31T06:37:59;56.64;51.50;67.14;;
72415;Laerm;60995;52.154;4.498;2023-03-31T06:40:16;55.29;50.59;63.84;;
72415;Laerm;60995;52.154;4.498;2023-03-31T06:42:32;54.89;50.36;62.31;;
72415;Laerm;60995;52.154;4.498;2023-03-31T06:44:49;54.61;50.28;64.21;;
72415;Laerm;60995;52.154;4.498;2023-03-31T06:47:06;54.88;49.22;62.61;;
72415;Laerm;60995;52.154;4.498;2023-03-31T06:49:22;55.35;49.46;62.79;;
72415;Laerm;60995;52.154;4.498;2023-03-31T06:51:38;55.97;50.60;66.47;;
72415;Laerm;60995;52.154;4.498;2023-03-31T06:53:55;54.90;48.43;61.13;;
72415;Laerm;60995;52.154;4.498;2023-03-31T06:56:11;54.95;49.96;65.81;;
72415;Laerm;60995;52.154;4.498;2023-03-31T06:58:27;54.31;49.04;68.89;;
72415;Laerm;60995;52.154;4.498;2023-03-31T07:00:44;54.84;49.84;68.47;;
72415;Laerm;60995;52.154;4.498;2023-03-31T07:03:01;55.56;49.98;64.45;;
72415;Laerm;60995;52.154;4.498;2023-03-31T07:05:19;55.29;50.72;63.97;;
72415;Laerm;60995;52.154;4.498;2023-03-31T07:07:41;54.95;49.57;68.52;;
72415;Laerm;60995;52.154;4.498;2023-03-31T07:09:58;54.76;49.30;64.82;;
72415;Laerm;60995;52.154;4.498;2023-03-31T07:12:14;55.62;49.74;64.93;;
72415;Laerm;60995;52.154;4.498;2023-03-31T07:14:31;53.68;48.94;60.84;;
72415;Laerm;60995;52.154;4.498;2023-03-31T07:16:47;54.72;49.47;64.51;;
72415;Laerm;60995;52.154;4.498;2023-03-31T07:19:06;54.61;49.62;63.27;;
72415;Laerm;60995;52.154;4.498;2023-03-31T07:21:26;54.83;50.21;64.74;;
72415;Laerm;60995;52.154;4.498;2023-03-31T07:23:42;53.68;48.19;65.30;;
72415;Laerm;60995;52.154;4.498;2023-03-31T07:25:58;54.97;47.60;63.76;;
72415;Laerm;60995;52.154;4.498;2023-03-31T07:28:17;54.66;48.76;69.03;;
72415;Laerm;60995;52.154;4.498;2023-03-31T07:30:34;54.30;49.11;62.55;;
72415;Laerm;60995;52.154;4.498;2023-03-31T07:32:53;54.32;48.86;64.26;;
72415;Laerm;60995;52.154;4.498;2023-03-31T07:35:10;53.51;47.20;64.42;;
72415;Laerm;60995;52.154;4.498;2023-03-31T07:37:26;53.97;48.11;69.45;;
72415;Laerm;60995;52.154;4.498;2023-03-31T07:39:46;54.49;48.41;63.14;;
72415;Laerm;60995;52.154;4.498;2023-03-31T07:42:04;53.76;48.79;59.80;;
72415;Laerm;60995;52.154;4.498;2023-03-31T07:44:20;53.78;48.74;58.85;;
72415;Laerm;60995;52.154;4.498;2023-03-31T07:46:38;54.30;49.25;59.67;;
72415;Laerm;60995;52.154;4.498;2023-03-31T07:48:57;54.12;48.53;62.98;;
72415;Laerm;60995;52.154;4.498;2023-03-31T07:51:21;54.51;49.50;62.95;;
72415;Laerm;60995;52.154;4.498;2023-03-31T07:53:38;54.02;48.25;63.84;;
72415;Laerm;60995;52.154;4.498;2023-03-31T07:55:54;54.70;48.91;59.75;;
72415;Laerm;60995;52.154;4.498;2023-03-31T07:58:10;54.52;48.45;60.45;;
72415;Laerm;60995;52.154;4.498;2023-03-31T08:00:27;54.23;49.36;63.96;;
72415;Laerm;60995;52.154;4.498;2023-03-31T08:02:44;55.82;49.79;67.94;;
72415;Laerm;60995;52.154;4.498;2023-03-31T08:05:00;53.70;49.35;58.56;;
72415;Laerm;60995;52.154;4.498;2023-03-31T08:07:17;53.78;48.82;64.55;;
72415;Laerm;60995;52.154;4.498;2023-03-31T08:09:33;53.22;48.71;59.13;;
72415;Laerm;60995;52.154;4.498;2023-03-31T08:11:50;54.29;49.09;62.38;;
72415;Laerm;60995;52.154;4.498;2023-03-31T08:14:06;54.57;49.72;61.00;;
72415;Laerm;60995;52.154;4.498;2023-03-31T08:16:22;53.72;48.20;64.99;;
72415;Laerm;60995;52.154;4.498;2023-03-31T08:18:39;53.58;47.78;69.98;;
72415;Laerm;60995;52.154;4.498;2023-03-31T08:20:55;53.86;47.92;60.73;;
72415;Laerm;60995;52.154;4.498;2023-03-31T08:23:12;53.60;47.63;63.11;;
72415;Laerm;60995;52.154;4.498;2023-03-31T08:25:28;53.05;47.63;64.23;;
72415;Laerm;60995;52.154;4.498;2023-03-31T08:27:44;55.62;47.35;68.31;;
72415;Laerm;60995;52.154;4.498;2023-03-31T08:30:09;54.43;47.49;66.69;;
72415;Laerm;60995;52.154;4.498;2023-03-31T08:32:26;54.37;48.50;61.80;;
72415;Laerm;60995;52.154;4.498;2023-03-31T08:34:42;53.62;48.90;59.82;;
72415;Laerm;60995;52.154;4.498;2023-03-31T08:36:58;54.18;48.57;67.01;;
72415;Laerm;60995;52.154;4.498;2023-03-31T08:39:15;54.85;48.61;65.63;;
72415;Laerm;60995;52.154;4.498;2023-03-31T08:44:30;54.24;49.40;71.77;;
72415;Laerm;60995;52.154;4.498;2023-03-31T08:46:50;54.19;48.80;64.82;;
72415;Laerm;60995;52.154;4.498;2023-03-31T08:49:15;54.69;49.62;65.73;;
72415;Laerm;60995;52.154;4.498;2023-03-31T08:52:03;55.09;49.99;74.24;;
72415;Laerm;60995;52.154;4.498;2023-03-31T08:54:31;54.93;49.90;64.32;;
72415;Laerm;60995;52.154;4.498;2023-03-31T08:56:49;54.66;48.74;63.46;;
72415;Laerm;60995;52.154;4.498;2023-03-31T09:02:14;55.09;49.57;69.16;;
72415;Laerm;60995;52.154;4.498;2023-03-31T09:04:47;54.10;48.52;60.18;;
72415;Laerm;60995;52.154;4.498;2023-03-31T09:10:37;53.94;48.71;65.13;;
72415;Laerm;60995;52.154;4.498;2023-03-31T09:18:09;58.97;47.63;72.92;;
72415;Laerm;60995;52.154;4.498;2023-03-31T09:20:36;57.53;49.21;77.52;;
72415;Laerm;60995;52.154;4.498;2023-03-31T09:23:09;56.19;50.15;69.05;;
72415;Laerm;60995;52.154;4.498;2023-03-31T09:25:35;54.44;48.18;60.89;;
72415;Laerm;60995;52.154;4.498;2023-03-31T09:27:56;54.00;49.08;64.13;;
72415;Laerm;60995;52.154;4.498;2023-03-31T09:30:29;54.64;48.41;65.15;;
72415;Laerm;60995;52.154;4.498;2023-03-31T09:33:37;54.59;49.64;63.37;;
72415;Laerm;60995;52.154;4.498;2023-03-31T09:35:34;54.46;49.08;61.46;;
72415;Laerm;60995;52.154;4.498;2023-03-31T09:37:52;55.84;48.89;67.01;;
72415;Laerm;60995;52.154;4.498;2023-03-31T09:40:19;57.00;49.72;72.63;;
72415;Laerm;60995;52.154;4.498;2023-03-31T09:42:37;54.33;48.83;61.76;;
72415;Laerm;60995;52.154;4.498;2023-03-31T09:44:54;54.95;48.92;63.71;;
72415;Laerm;60995;52.154;4.498;2023-03-31T09:47:27;56.19;49.67;67.43;;
72415;Laerm;60995;52.154;4.498;2023-03-31T09:49:46;55.94;49.63;65.95;;
72415;Laerm;60995;52.154;4.498;2023-03-31T09:52:26;57.10;50.12;68.36;;
72415;Laerm;60995;52.154;4.498;2023-03-31T09:54:49;55.12;50.17;66.58;;
72415;Laerm;60995;52.154;4.498;2023-03-31T09:57:29;55.15;50.58;63.26;;
72415;Laerm;60995;52.154;4.498;2023-03-31T09:59:50;54.84;50.11;69.37;;
72415;Laerm;60995;52.154;4.498;2023-03-31T10:02:53;54.69;48.78;64.61;;
72415;Laerm;60995;52.154;4.498;2023-03-31T10:05:33;55.26;49.29;65.04;;
72415;Laerm;60995;52.154;4.498;2023-03-31T10:10:32;53.62;49.62;68.15;;
72415;Laerm;60995;52.154;4.498;2023-03-31T10:12:51;55.42;49.68;70.76;;
72415;Laerm;60995;52.154;4.498;2023-03-31T10:15:20;54.38;48.66;64.66;;
72415;Laerm;60995;52.154;4.498;2023-03-31T10:17:43;54.28;49.29;64.75;;
72415;Laerm;60995;52.154;4.498;2023-03-31T10:20:36;54.28;49.04;68.79;;
72415;Laerm;60995;52.154;4.498;2023-03-31T10:22:52;53.79;48.86;65.76;;
72415;Laerm;60995;52.154;4.498;2023-03-31T10:25:20;54.51;50.29;63.14;;
72415;Laerm;60995;52.154;4.498;2023-03-31T10:27:40;57.81;49.84;75.66;;
72415;Laerm;60995;52.154;4.498;2023-03-31T10:30:03;54.73;49.24;70.12;;
72415;Laerm;60995;52.154;4.498;2023-03-31T10:32:30;54.18;49.15;64.45;;
72415;Laerm;60995;52.154;4.498;2023-03-31T10:34:48;53.61;49.14;63.60;;
72415;Laerm;60995;52.154;4.498;2023-03-31T10:37:06;56.15;48.91;73.85;;
72415;Laerm;60995;52.154;4.498;2023-03-31T10:39:30;54.92;49.45;62.67;;
72415;Laerm;60995;52.154;4.498;2023-03-31T10:41:50;54.93;49.66;62.03;;
72415;Laerm;60995;52.154;4.498;2023-03-31T10:44:33;54.63;50.11;62.58;;
72415;Laerm;60995;52.154;4.498;2023-03-31T10:46:52;56.38;50.10;66.27;;
72415;Laerm;60995;52.154;4.498;2023-03-31T10:49:25;54.99;50.18;65.10;;
72415;Laerm;60995;52.154;4.498;2023-03-31T10:51:57;53.76;48.83;59.42;;
72415;Laerm;60995;52.154;4.498;2023-03-31T10:54:14;53.97;49.08;59.38;;
72415;Laerm;60995;52.154;4.498;2023-03-31T10:56:41;55.82;50.41;66.33;;
72415;Laerm;60995;52.154;4.498;2023-03-31T11:18:49;55.41;49.19;68.69;;
72415;Laerm;60995;52.154;4.498;2023-03-31T11:22:10;56.26;49.93;66.46;;
72415;Laerm;60995;52.154;4.498;2023-03-31T11:25:11;54.42;49.24;66.11;;
72415;Laerm;60995;52.154;4.498;2023-03-31T11:28:20;54.02;48.08;67.60;;
72415;Laerm;60995;52.154;4.498;2023-03-31T11:30:48;53.76;48.88;65.41;;
72415;Laerm;60995;52.154;4.498;2023-03-31T11:33:39;55.22;48.73;66.37;;
72415;Laerm;60995;52.154;4.498;2023-03-31T11:38:56;54.32;49.35;60.32;;
72415;Laerm;60995;52.154;4.498;2023-03-31T11:41:38;63.07;50.15;80.29;;
72415;Laerm;60995;52.154;4.498;2023-03-31T11:44:03;56.05;51.28;63.87;;
72415;Laerm;60995;52.154;4.498;2023-03-31T11:46:31;54.94;49.57;70.71;;
72415;Laerm;60995;52.154;4.498;2023-03-31T11:49:18;54.94;49.39;63.93;;
72415;Laerm;60995;52.154;4.498;2023-03-31T11:52:05;53.86;48.08;69.87;;
72415;Laerm;60995;52.154;4.498;2023-03-31T11:54:38;54.13;47.83;60.28;;
72415;Laerm;60995;52.154;4.498;2023-03-31T11:57:02;53.88;48.90;64.40;;
72415;Laerm;60995;52.154;4.498;2023-03-31T11:59:25;55.52;49.48;67.29;;
72415;Laerm;60995;52.154;4.498;2023-03-31T12:04:42;53.32;48.44;63.74;;
72415;Laerm;60995;52.154;4.498;2023-03-31T12:07:33;54.05;48.60;70.24;;
72415;Laerm;60995;52.154;4.498;2023-03-31T12:10:20;54.36;49.09;67.61;;
72415;Laerm;60995;52.154;4.498;2023-03-31T12:16:01;57.13;48.52;70.27;;
72415;Laerm;60995;52.154;4.498;2023-03-31T12:18:24;54.02;49.21;63.09;;
72415;Laerm;60995;52.154;4.498;2023-03-31T12:20:52;54.21;48.63;64.77;;
72415;Laerm;60995;52.154;4.498;2023-03-31T12:23:17;53.89;48.43;65.26;;
72415;Laerm;60995;52.154;4.498;2023-03-31T12:25:53;53.58;47.46;64.90;;
72415;Laerm;60995;52.154;4.498;2023-03-31T12:28:11;53.69;48.31;67.56;;
72415;Laerm;60995;52.154;4.498;2023-03-31T12:30:39;52.86;48.54;63.78;;
72415;Laerm;60995;52.154;4.498;2023-03-31T12:33:29;53.97;48.11;67.55;;
72415;Laerm;60995;52.154;4.498;2023-03-31T12:41:20;52.18;47.24;67.43;;
72415;Laerm;60995;52.154;4.498;2023-03-31T12:44:28;52.93;48.22;67.65;;
72415;Laerm;60995;52.154;4.498;2023-03-31T12:46:49;53.42;47.79;71.47;;
72415;Laerm;60995;52.154;4.498;2023-03-31T12:52:25;52.80;47.95;63.60;;
72415;Laerm;60995;52.154;4.498;2023-03-31T12:59:39;52.35;46.20;65.15;;
72415;Laerm;60995;52.154;4.498;2023-03-31T13:02:21;52.03;46.58;62.11;;
72415;Laerm;60995;52.154;4.498;2023-03-31T13:04:38;52.95;47.22;61.45;;
72415;Laerm;60995;52.154;4.498;2023-03-31T13:06:57;52.39;47.43;65.52;;
72415;Laerm;60995;52.154;4.498;2023-03-31T13:14:16;61.70;47.77;79.98;;
72415;Laerm;60995;52.154;4.498;2023-03-31T13:16:35;54.85;48.72;67.59;;
72415;Laerm;60995;52.154;4.498;2023-03-31T13:18:53;53.27;49.09;62.73;;
72415;Laerm;60995;52.154;4.498;2023-03-31T13:21:10;53.85;48.50;62.10;;
72415;Laerm;60995;52.154;4.498;2023-03-31T13:23:33;53.21;47.81;63.55;;
72415;Laerm;60995;52.154;4.498;2023-03-31T13:25:56;52.35;47.54;64.63;;
72415;Laerm;60995;52.154;4.498;2023-03-31T13:33:10;52.59;48.08;63.92;;
72415;Laerm;60995;52.154;4.498;2023-03-31T13:35:30;52.67;48.12;58.97;;
72415;Laerm;60995;52.154;4.498;2023-03-31T13:41:26;53.58;47.97;67.87;;
72415;Laerm;60995;52.154;4.498;2023-03-31T13:49:50;53.46;47.96;69.26;;
72415;Laerm;60995;52.154;4.498;2023-03-31T13:52:11;52.79;47.68;60.94;;
72415;Laerm;60995;52.154;4.498;2023-03-31T14:03:49;54.34;49.55;61.13;;
72415;Laerm;60995;52.154;4.498;2023-03-31T14:06:39;53.62;48.25;64.48;;
72415;Laerm;60995;52.154;4.498;2023-03-31T14:09:07;54.08;48.11;64.14;;
72415;Laerm;60995;52.154;4.498;2023-03-31T14:11:28;54.23;49.29;66.22;;
72415;Laerm;60995;52.154;4.498;2023-03-31T14:14:14;53.68;48.71;64.37;;
72415;Laerm;60995;52.154;4.498;2023-03-31T14:16:39;53.63;49.08;64.15;;
72415;Laerm;60995;52.154;4.498;2023-03-31T14:25:08;54.17;48.22;62.83;;
72415;Laerm;60995;52.154;4.498;2023-03-31T14:27:47;53.05;47.39;62.95;;
72415;Laerm;60995;52.154;4.498;2023-03-31T14:35:57;54.00;48.72;61.92;;
72415;Laerm;60995;52.154;4.498;2023-03-31T14:38:22;53.78;47.75;70.19;;
72415;Laerm;60995;52.154;4.498;2023-03-31T14:40:49;53.80;48.55;62.44;;
72415;Laerm;60995;52.154;4.498;2023-03-31T14:43:20;53.46;47.55;63.02;;
72415;Laerm;60995;52.154;4.498;2023-03-31T14:45:37;54.31;49.00;72.63;;
72415;Laerm;60995;52.154;4.498;2023-03-31T14:48:11;53.85;47.65;64.24;;
72415;Laerm;60995;52.154;4.498;2023-03-31T14:50:35;53.56;48.05;63.97;;
72415;Laerm;60995;52.154;4.498;2023-03-31T14:52:51;53.06;48.17;61.88;;
72415;Laerm;60995;52.154;4.498;2023-03-31T14:55:14;53.62;49.40;61.56;;
72415;Laerm;60995;52.154;4.498;2023-03-31T14:57:35;53.56;48.69;59.61;;
72415;Laerm;60995;52.154;4.498;2023-03-31T14:59:54;54.10;48.72;63.87;;
72415;Laerm;60995;52.154;4.498;2023-03-31T15:02:29;54.24;49.22;64.86;;
72415;Laerm;60995;52.154;4.498;2023-03-31T15:04:49;53.02;46.77;64.65;;
72415;Laerm;60995;52.154;4.498;2023-03-31T15:07:07;53.67;48.02;62.52;;
72415;Laerm;60995;52.154;4.498;2023-03-31T15:09:27;53.22;47.66;65.53;;
72415;Laerm;60995;52.154;4.498;2023-03-31T15:11:47;53.50;48.52;62.06;;
72415;Laerm;60995;52.154;4.498;2023-03-31T15:14:08;53.52;48.86;67.97;;
72415;Laerm;60995;52.154;4.498;2023-03-31T15:18:53;53.61;48.34;63.22;;
72415;Laerm;60995;52.154;4.498;2023-03-31T15:21:23;52.85;47.72;63.98;;
72415;Laerm;60995;52.154;4.498;2023-03-31T15:23:39;53.94;48.95;65.77;;
72415;Laerm;60995;52.154;4.498;2023-03-31T15:26:07;53.58;49.06;66.45;;
72415;Laerm;60995;52.154;4.498;2023-03-31T15:28:36;53.54;47.98;64.52;;
72415;Laerm;60995;52.154;4.498;2023-03-31T15:30:54;53.34;49.03;64.78;;
72415;Laerm;60995;52.154;4.498;2023-03-31T15:33:25;53.60;48.93;67.34;;
72415;Laerm;60995;52.154;4.498;2023-03-31T15:35:44;53.99;48.97;68.73;;
72415;Laerm;60995;52.154;4.498;2023-03-31T15:38:04;53.97;49.58;65.68;;
72415;Laerm;60995;52.154;4.498;2023-03-31T15:40:27;53.87;49.67;63.85;;